ARG1520 SABE-SACO
Flight info
| Callsign | ARG1520 |
|---|---|
| Flight time | 1h 37m |
| Altitude | 36000 |
| Route | ATOVO4B ATOVO UW5 ASISA ASISA1Q |
| Aircraft | B738/M-SDE2E3FGHIRWXY/LB1 |
Departure
| Time | 2026-05-03 20:46 |
|---|---|
| Airport | Aeroparque Jorge Newbery (SABE) |
Arrival
| Time | 2026-05-03 22:23 |
|---|---|
| Airport | Ingeniero Aeronáutico Ambrosio L.V. Taravella International Airport (SACO) |
| Time | Latitude | Longitude | Altitude | Speed | Heading |
|---|---|---|---|---|---|
| 2026-05-03 20:15 | -34.55798 | -58.41249 | 26 ft | 0 kts | 34° |
| 2026-05-03 20:16 | -34.55800 | -58.41251 | 26 ft | 0 kts | 34° |
| 2026-05-03 20:33 | -34.55804 | -58.41254 | 26 ft | 2 kts | 32° |
| 2026-05-03 20:34 | -34.55820 | -58.41263 | 26 ft | 3 kts | 7° |
| 2026-05-03 20:34 | -34.55837 | -58.41262 | 26 ft | 3 kts | 321° |
| 2026-05-03 20:34 | -34.55846 | -58.41250 | 26 ft | 1 kts | 293° |
| 2026-05-03 20:34 | -34.55846 | -58.41249 | 26 ft | 0 kts | 293° |
| 2026-05-03 20:37 | -34.55845 | -58.41252 | 26 ft | 2 kts | 279° |
| 2026-05-03 20:37 | -34.55858 | -58.41281 | 26 ft | 0 kts | 219° |
| 2026-05-03 20:38 | -34.55864 | -58.41284 | 26 ft | 0 kts | 208° |
| 2026-05-03 20:38 | -34.55865 | -58.41285 | 26 ft | 3 kts | 208° |
| 2026-05-03 20:38 | -34.55912 | -58.41301 | 26 ft | 9 kts | 152° |
| 2026-05-03 20:38 | -34.55947 | -58.41255 | 26 ft | 7 kts | 128° |
| 2026-05-03 20:39 | -34.55975 | -58.41211 | 26 ft | 6 kts | 127° |
| 2026-05-03 20:39 | -34.56013 | -58.41151 | 26 ft | 13 kts | 127° |
| 2026-05-03 20:39 | -34.56066 | -58.41067 | 26 ft | 12 kts | 127° |
| 2026-05-03 20:39 | -34.56111 | -58.40995 | 26 ft | 8 kts | 126° |
| 2026-05-03 20:40 | -34.56142 | -58.40940 | 26 ft | 8 kts | 124° |
| 2026-05-03 20:40 | -34.56168 | -58.40884 | 26 ft | 7 kts | 101° |
| 2026-05-03 20:40 | -34.56171 | -58.40825 | 26 ft | 7 kts | 122° |
| 2026-05-03 20:40 | -34.56197 | -58.40776 | 26 ft | 7 kts | 124° |
| 2026-05-03 20:41 | -34.56223 | -58.40729 | 26 ft | 7 kts | 124° |
| 2026-05-03 20:41 | -34.56249 | -58.40684 | 26 ft | 6 kts | 124° |
| 2026-05-03 20:41 | -34.56273 | -58.40639 | 26 ft | 6 kts | 124° |
| 2026-05-03 20:41 | -34.56297 | -58.40596 | 26 ft | 6 kts | 124° |
| 2026-05-03 20:42 | -34.56325 | -58.40559 | 26 ft | 6 kts | 138° |
| 2026-05-03 20:42 | -34.56354 | -58.40527 | 26 ft | 6 kts | 138° |
| 2026-05-03 20:42 | -34.56383 | -58.40495 | 26 ft | 5 kts | 138° |
| 2026-05-03 20:42 | -34.56404 | -58.40473 | 26 ft | 0 kts | 139° |
| 2026-05-03 20:44 | -34.56421 | -58.40454 | 26 ft | 5 kts | 139° |
| 2026-05-03 20:44 | -34.56476 | -58.40396 | 26 ft | 11 kts | 139° |
| 2026-05-03 20:44 | -34.56540 | -58.40390 | 26 ft | 7 kts | 216° |
| 2026-05-03 20:45 | -34.56562 | -58.40421 | 26 ft | 5 kts | 267° |
| 2026-05-03 20:45 | -34.56555 | -58.40442 | 26 ft | 0 kts | 304° |
| 2026-05-03 20:45 | -34.56496 | -58.40546 | 26 ft | 48 kts | 304° |
| 2026-05-03 20:45 | -34.56138 | -58.41186 | 26 ft | 131 kts | 303° |
| 2026-05-03 20:46 | -34.55514 | -58.42306 | 193 ft | 183 kts | 304° |
| 2026-05-03 20:46 | -34.54793 | -58.43584 | 946 ft | 198 kts | 306° |
| 2026-05-03 20:46 | -34.53728 | -58.44813 | 2007 ft | 202 kts | 330° |
| 2026-05-03 20:46 | -34.52408 | -58.45202 | 2894 ft | 195 kts | 358° |
| 2026-05-03 20:47 | -34.51128 | -58.44735 | 3772 ft | 193 kts | 22° |
| 2026-05-03 20:47 | -34.49972 | -58.43886 | 4562 ft | 198 kts | 26° |
| 2026-05-03 20:47 | -34.48758 | -58.42879 | 4782 ft | 235 kts | 31° |
| 2026-05-03 20:47 | -34.47344 | -58.41621 | 4937 ft | 262 kts | 32° |
| 2026-05-03 20:48 | -34.45854 | -58.40291 | 5062 ft | 273 kts | 32° |
| 2026-05-03 20:48 | -34.44268 | -58.38885 | 5368 ft | 282 kts | 32° |
| 2026-05-03 20:48 | -34.42685 | -58.37488 | 6359 ft | 282 kts | 32° |
| 2026-05-03 20:48 | -34.41082 | -58.36136 | 7213 ft | 286 kts | 26° |
| 2026-05-03 20:49 | -34.39222 | -58.35349 | 8039 ft | 283 kts | 2° |
| 2026-05-03 20:49 | -34.37288 | -58.35526 | 8846 ft | 279 kts | 339° |
| 2026-05-03 20:49 | -34.35535 | -58.36506 | 9662 ft | 279 kts | 325° |
| 2026-05-03 20:49 | -34.33921 | -58.37820 | 10454 ft | 283 kts | 320° |
| 2026-05-03 20:50 | -34.32299 | -58.39221 | 11147 ft | 293 kts | 319° |
| 2026-05-03 20:50 | -34.30582 | -58.40722 | 11529 ft | 313 kts | 320° |
| 2026-05-03 20:50 | -34.28757 | -58.42308 | 11833 ft | 334 kts | 320° |
| 2026-05-03 20:50 | -34.26833 | -58.43974 | 12273 ft | 348 kts | 320° |
| 2026-05-03 20:51 | -34.24846 | -58.45735 | 12952 ft | 352 kts | 316° |
| 2026-05-03 20:51 | -34.23183 | -58.47876 | 13656 ft | 349 kts | 301° |
| 2026-05-03 20:51 | -34.22043 | -58.50415 | 14353 ft | 348 kts | 288° |
| 2026-05-03 20:51 | -34.21350 | -58.53246 | 15084 ft | 348 kts | 282° |
| 2026-05-03 20:52 | -34.20680 | -58.56035 | 15780 ft | 352 kts | 283° |
| 2026-05-03 20:52 | -34.19968 | -58.58866 | 16458 ft | 354 kts | 283° |
| 2026-05-03 20:52 | -34.19252 | -58.61736 | 17119 ft | 357 kts | 283° |
| 2026-05-03 20:52 | -34.18540 | -58.64606 | 17759 ft | 360 kts | 283° |
| 2026-05-03 20:53 | -34.17817 | -58.67531 | 18387 ft | 363 kts | 283° |
| 2026-05-03 20:53 | -34.17094 | -58.70460 | 18995 ft | 366 kts | 283° |
| 2026-05-03 20:53 | -34.16365 | -58.73417 | 19569 ft | 369 kts | 282° |
| 2026-05-03 20:53 | -34.15634 | -58.76383 | 20128 ft | 373 kts | 282° |
| 2026-05-03 20:54 | -34.14902 | -58.79428 | 20689 ft | 375 kts | 282° |
| 2026-05-03 20:54 | -34.13437 | -58.85538 | 21751 ft | 382 kts | 282° |
| 2026-05-03 20:54 | -34.12676 | -58.88640 | 22249 ft | 386 kts | 282° |
| 2026-05-03 20:55 | -34.11911 | -58.91740 | 22734 ft | 389 kts | 282° |
| 2026-05-03 20:55 | -34.11142 | -58.94840 | 23199 ft | 392 kts | 282° |
| 2026-05-03 20:55 | -34.10357 | -58.98001 | 23662 ft | 395 kts | 282° |
| 2026-05-03 20:55 | -34.09565 | -59.01186 | 24110 ft | 398 kts | 282° |
| 2026-05-03 20:56 | -34.08767 | -59.04391 | 24565 ft | 400 kts | 282° |
| 2026-05-03 20:56 | -34.07963 | -59.07619 | 25050 ft | 402 kts | 282° |
| 2026-05-03 20:56 | -34.07137 | -59.10872 | 25510 ft | 405 kts | 283° |
| 2026-05-03 20:56 | -34.06038 | -59.14019 | 25949 ft | 412 kts | 291° |
| 2026-05-03 20:57 | -34.04568 | -59.17005 | 26375 ft | 419 kts | 298° |
| 2026-05-03 20:57 | -34.02821 | -59.19860 | 26792 ft | 424 kts | 302° |
| 2026-05-03 20:57 | -34.00941 | -59.22625 | 27196 ft | 427 kts | 304° |
| 2026-05-03 20:57 | -33.99010 | -59.25355 | 27588 ft | 429 kts | 304° |
| 2026-05-03 20:58 | -33.97084 | -59.28092 | 27965 ft | 430 kts | 303° |
| 2026-05-03 20:58 | -33.95141 | -59.30864 | 28335 ft | 432 kts | 303° |
| 2026-05-03 20:58 | -33.93200 | -59.33639 | 28693 ft | 433 kts | 303° |
| 2026-05-03 20:58 | -33.91260 | -59.36415 | 29038 ft | 435 kts | 303° |
| 2026-05-03 20:59 | -33.89369 | -59.39164 | 29371 ft | 435 kts | 303° |
| 2026-05-03 20:59 | -33.87407 | -59.42008 | 29813 ft | 434 kts | 303° |
| 2026-05-03 20:59 | -33.85497 | -59.44753 | 30355 ft | 430 kts | 303° |
| 2026-05-03 20:59 | -33.83582 | -59.47494 | 30857 ft | 427 kts | 303° |
| 2026-05-03 21:00 | -33.81668 | -59.50226 | 31281 ft | 426 kts | 303° |
| 2026-05-03 21:00 | -33.81023 | -59.51146 | 31407 ft | 426 kts | 303° |
| 2026-05-03 21:00 | -33.77852 | -59.55665 | 32070 ft | 424 kts | 303° |
| 2026-05-03 21:00 | -33.75946 | -59.58379 | 32460 ft | 423 kts | 303° |
| 2026-05-03 21:01 | -33.74053 | -59.61074 | 32841 ft | 422 kts | 303° |
| 2026-05-03 21:01 | -33.72168 | -59.63755 | 33215 ft | 421 kts | 303° |
| 2026-05-03 21:01 | -33.70273 | -59.66452 | 33586 ft | 420 kts | 303° |
| 2026-05-03 21:01 | -33.68397 | -59.69117 | 33947 ft | 419 kts | 303° |
| 2026-05-03 21:02 | -33.66513 | -59.71784 | 34304 ft | 418 kts | 303° |
| 2026-05-03 21:02 | -33.64621 | -59.74461 | 34654 ft | 417 kts | 303° |
| 2026-05-03 21:02 | -33.62748 | -59.77108 | 34995 ft | 416 kts | 303° |
| 2026-05-03 21:02 | -33.60880 | -59.79747 | 35311 ft | 416 kts | 303° |
| 2026-05-03 21:03 | -33.59023 | -59.82370 | 35610 ft | 416 kts | 303° |
| 2026-05-03 21:03 | -33.57154 | -59.85007 | 35943 ft | 414 kts | 303° |
| 2026-05-03 21:03 | -33.55259 | -59.87679 | 36072 ft | 416 kts | 303° |
| 2026-05-03 21:03 | -33.53408 | -59.90287 | 36081 ft | 415 kts | 303° |
| 2026-05-03 21:04 | -33.49691 | -59.95522 | 36082 ft | 409 kts | 303° |
| 2026-05-03 21:04 | -33.46028 | -60.00711 | 36083 ft | 407 kts | 303° |
| 2026-05-03 21:05 | -33.42385 | -60.05894 | 36083 ft | 408 kts | 303° |
| 2026-05-03 21:05 | -33.38699 | -60.11095 | 36082 ft | 408 kts | 303° |
| 2026-05-03 21:06 | -33.35012 | -60.16262 | 36083 ft | 408 kts | 303° |
| 2026-05-03 21:06 | -33.31327 | -60.21414 | 36082 ft | 408 kts | 303° |
| 2026-05-03 21:07 | -33.27627 | -60.26580 | 36083 ft | 408 kts | 303° |
| 2026-05-03 21:07 | -33.24564 | -60.30854 | 36082 ft | 408 kts | 303° |
| 2026-05-03 21:08 | -33.20238 | -60.36883 | 36082 ft | 408 kts | 304° |
| 2026-05-03 21:08 | -33.16532 | -60.42031 | 36083 ft | 408 kts | 304° |
| 2026-05-03 21:09 | -33.12853 | -60.47136 | 36082 ft | 408 kts | 304° |
| 2026-05-03 21:09 | -33.09166 | -60.52302 | 36098 ft | 402 kts | 303° |
| 2026-05-03 21:10 | -33.05568 | -60.57308 | 36108 ft | 399 kts | 303° |
| 2026-05-03 21:10 | -33.01945 | -60.62319 | 36112 ft | 400 kts | 303° |
| 2026-05-03 21:11 | -32.98304 | -60.67344 | 36112 ft | 400 kts | 304° |
| 2026-05-03 21:11 | -32.94661 | -60.72365 | 36112 ft | 400 kts | 304° |
| 2026-05-03 21:12 | -32.91087 | -60.77384 | 36112 ft | 397 kts | 300° |
| 2026-05-03 21:12 | -32.88579 | -60.81949 | 36113 ft | 392 kts | 295° |
| 2026-05-03 21:13 | -32.85820 | -60.87544 | 36112 ft | 392 kts | 294° |
| 2026-05-03 21:13 | -32.83057 | -60.93129 | 36112 ft | 392 kts | 294° |
| 2026-05-03 21:14 | -32.80310 | -60.98728 | 36112 ft | 392 kts | 294° |
| 2026-05-03 21:14 | -32.77576 | -61.04284 | 36112 ft | 392 kts | 294° |
| 2026-05-03 21:15 | -32.74790 | -61.09892 | 36112 ft | 392 kts | 294° |
| 2026-05-03 21:15 | -32.72025 | -61.15435 | 36112 ft | 392 kts | 294° |
| 2026-05-03 21:16 | -32.69244 | -61.21004 | 36112 ft | 392 kts | 294° |
| 2026-05-03 21:16 | -32.66464 | -61.26567 | 36112 ft | 392 kts | 294° |
| 2026-05-03 21:17 | -32.63679 | -61.32144 | 36112 ft | 392 kts | 294° |
| 2026-05-03 21:17 | -32.60900 | -61.37695 | 36112 ft | 392 kts | 295° |
| 2026-05-03 21:18 | -32.58110 | -61.43260 | 36112 ft | 392 kts | 295° |
| 2026-05-03 21:18 | -32.55320 | -61.48819 | 36112 ft | 392 kts | 295° |
| 2026-05-03 21:19 | -32.52542 | -61.54345 | 36112 ft | 391 kts | 295° |
| 2026-05-03 21:19 | -32.49783 | -61.59880 | 36112 ft | 390 kts | 294° |
| 2026-05-03 21:20 | -32.47031 | -61.65425 | 36112 ft | 391 kts | 294° |
| 2026-05-03 21:20 | -32.44248 | -61.70953 | 36112 ft | 391 kts | 295° |
| 2026-05-03 21:21 | -32.41447 | -61.76495 | 36112 ft | 391 kts | 295° |
| 2026-05-03 21:21 | -32.38653 | -61.82013 | 36112 ft | 391 kts | 295° |
| 2026-05-03 21:22 | -32.35877 | -61.87491 | 36112 ft | 391 kts | 295° |
| 2026-05-03 21:22 | -32.33082 | -61.93002 | 36112 ft | 391 kts | 295° |
| 2026-05-03 21:23 | -32.30272 | -61.98511 | 36112 ft | 391 kts | 295° |
| 2026-05-03 21:23 | -32.27449 | -62.04035 | 36112 ft | 391 kts | 295° |
| 2026-05-03 21:24 | -32.24647 | -62.09508 | 35923 ft | 393 kts | 295° |
| 2026-05-03 21:24 | -32.23235 | -62.12263 | 35545 ft | 389 kts | 295° |
| 2026-05-03 21:24 | -32.21828 | -62.15006 | 34902 ft | 390 kts | 295° |
| 2026-05-03 21:25 | -32.20424 | -62.17743 | 34264 ft | 391 kts | 295° |
| 2026-05-03 21:25 | -32.19015 | -62.20487 | 33764 ft | 389 kts | 294° |
| 2026-05-03 21:25 | -32.17620 | -62.23202 | 33302 ft | 386 kts | 294° |
| 2026-05-03 21:25 | -32.16235 | -62.25900 | 32849 ft | 383 kts | 294° |
| 2026-05-03 21:26 | -32.14878 | -62.28583 | 32555 ft | 376 kts | 294° |
| 2026-05-03 21:26 | -32.13554 | -62.31191 | 32302 ft | 368 kts | 294° |
| 2026-05-03 21:26 | -32.12246 | -62.33756 | 32044 ft | 356 kts | 294° |
| 2026-05-03 21:26 | -32.11006 | -62.36180 | 31793 ft | 343 kts | 293° |
| 2026-05-03 21:27 | -32.09795 | -62.38544 | 31539 ft | 331 kts | 293° |
| 2026-05-03 21:27 | -32.08626 | -62.40821 | 31287 ft | 320 kts | 293° |
| 2026-05-03 21:27 | -32.07480 | -62.43052 | 31035 ft | 317 kts | 292° |
| 2026-05-03 21:27 | -32.06336 | -62.45277 | 30787 ft | 319 kts | 292° |
| 2026-05-03 21:28 | -32.05188 | -62.47506 | 30479 ft | 317 kts | 292° |
| 2026-05-03 21:28 | -32.04041 | -62.49733 | 30079 ft | 318 kts | 292° |
| 2026-05-03 21:28 | -32.02886 | -62.51973 | 29674 ft | 320 kts | 292° |
| 2026-05-03 21:28 | -32.01726 | -62.54222 | 29240 ft | 321 kts | 292° |
| 2026-05-03 21:29 | -32.00562 | -62.56476 | 28798 ft | 323 kts | 293° |
| 2026-05-03 21:29 | -31.99392 | -62.58741 | 28351 ft | 325 kts | 293° |
| 2026-05-03 21:29 | -31.98226 | -62.60996 | 27904 ft | 326 kts | 293° |
| 2026-05-03 21:29 | -31.97033 | -62.63303 | 27442 ft | 328 kts | 293° |
| 2026-05-03 21:30 | -31.95843 | -62.65602 | 26978 ft | 330 kts | 293° |
| 2026-05-03 21:30 | -31.94645 | -62.67916 | 26507 ft | 332 kts | 293° |
| 2026-05-03 21:30 | -31.93450 | -62.70221 | 26034 ft | 334 kts | 293° |
| 2026-05-03 21:30 | -31.92242 | -62.72551 | 25552 ft | 336 kts | 293° |
| 2026-05-03 21:31 | -31.91013 | -62.74920 | 25056 ft | 338 kts | 293° |
| 2026-05-03 21:31 | -31.89784 | -62.77287 | 24555 ft | 340 kts | 294° |
| 2026-05-03 21:31 | -31.88547 | -62.79668 | 24054 ft | 342 kts | 294° |
| 2026-05-03 21:31 | -31.87310 | -62.82048 | 23649 ft | 341 kts | 294° |
| 2026-05-03 21:32 | -31.86072 | -62.84427 | 23246 ft | 340 kts | 294° |
| 2026-05-03 21:32 | -31.84839 | -62.86797 | 22842 ft | 339 kts | 294° |
| 2026-05-03 21:32 | -31.84031 | -62.88349 | 22573 ft | 338 kts | 294° |
| 2026-05-03 21:32 | -31.82400 | -62.91517 | 22043 ft | 336 kts | 294° |
| 2026-05-03 21:33 | -31.81192 | -62.93849 | 21649 ft | 335 kts | 294° |
| 2026-05-03 21:33 | -31.79972 | -62.96191 | 21253 ft | 334 kts | 295° |
| 2026-05-03 21:33 | -31.78764 | -62.98504 | 20860 ft | 333 kts | 295° |
| 2026-05-03 21:33 | -31.77540 | -63.00845 | 20585 ft | 341 kts | 295° |
| 2026-05-03 21:34 | -31.76260 | -63.03286 | 20338 ft | 360 kts | 295° |
| 2026-05-03 21:34 | -31.74929 | -63.05821 | 19953 ft | 369 kts | 296° |
| 2026-05-03 21:34 | -31.73574 | -63.08403 | 19472 ft | 370 kts | 296° |
| 2026-05-03 21:34 | -31.72240 | -63.10943 | 18991 ft | 369 kts | 296° |
| 2026-05-03 21:35 | -31.70897 | -63.13499 | 18504 ft | 367 kts | 296° |
| 2026-05-03 21:35 | -31.69560 | -63.16043 | 18020 ft | 365 kts | 296° |
| 2026-05-03 21:35 | -31.68232 | -63.18568 | 17539 ft | 362 kts | 297° |
| 2026-05-03 21:35 | -31.66907 | -63.21090 | 17059 ft | 360 kts | 297° |
| 2026-05-03 21:36 | -31.65656 | -63.23585 | 16589 ft | 356 kts | 294° |
| 2026-05-03 21:36 | -31.64480 | -63.26166 | 16113 ft | 353 kts | 294° |
| 2026-05-03 21:36 | -31.63348 | -63.28665 | 15652 ft | 351 kts | 294° |
| 2026-05-03 21:36 | -31.62202 | -63.31172 | 15187 ft | 349 kts | 294° |
| 2026-05-03 21:37 | -31.61037 | -63.33706 | 14714 ft | 346 kts | 295° |
| 2026-05-03 21:37 | -31.59898 | -63.36176 | 14252 ft | 344 kts | 295° |
| 2026-05-03 21:37 | -31.58757 | -63.38651 | 13789 ft | 342 kts | 295° |
| 2026-05-03 21:37 | -31.57662 | -63.41071 | 13334 ft | 340 kts | 295° |
| 2026-05-03 21:38 | -31.56545 | -63.43510 | 12874 ft | 338 kts | 295° |
| 2026-05-03 21:38 | -31.55436 | -63.45915 | 12415 ft | 337 kts | 296° |
| 2026-05-03 21:38 | -31.54312 | -63.48341 | 11949 ft | 336 kts | 296° |
| 2026-05-03 21:38 | -31.53195 | -63.50744 | 11490 ft | 334 kts | 296° |
| 2026-05-03 21:39 | -31.52087 | -63.53124 | 11033 ft | 333 kts | 296° |
| 2026-05-03 21:39 | -31.50976 | -63.55509 | 10576 ft | 332 kts | 296° |
| 2026-05-03 21:39 | -31.49873 | -63.57874 | 10270 ft | 326 kts | 296° |
| 2026-05-03 21:39 | -31.48809 | -63.60154 | 10165 ft | 315 kts | 296° |
| 2026-05-03 21:40 | -31.47912 | -63.62077 | 10087 ft | 305 kts | 296° |
| 2026-05-03 21:40 | -31.46961 | -63.64113 | 10014 ft | 294 kts | 296° |
| 2026-05-03 21:40 | -31.45983 | -63.66207 | 9862 ft | 287 kts | 296° |
| 2026-05-03 21:40 | -31.45016 | -63.68278 | 9320 ft | 293 kts | 298° |
| 2026-05-03 21:41 | -31.44078 | -63.70394 | 8932 ft | 293 kts | 292° |
| 2026-05-03 21:41 | -31.43516 | -63.72647 | 8580 ft | 292 kts | 280° |
| 2026-05-03 21:41 | -31.43323 | -63.75037 | 8214 ft | 291 kts | 272° |
| 2026-05-03 21:41 | -31.43327 | -63.76589 | 7981 ft | 291 kts | 270° |
| 2026-05-03 21:42 | -31.43401 | -63.79059 | 7604 ft | 290 kts | 269° |
| 2026-05-03 21:42 | -31.43446 | -63.81382 | 7320 ft | 286 kts | 270° |
| 2026-05-03 21:42 | -31.43466 | -63.83740 | 6995 ft | 284 kts | 271° |
| 2026-05-03 21:42 | -31.43474 | -63.86045 | 6656 ft | 283 kts | 271° |
| 2026-05-03 21:43 | -31.43479 | -63.88319 | 6315 ft | 282 kts | 271° |
| 2026-05-03 21:43 | -31.43482 | -63.90590 | 5972 ft | 281 kts | 271° |
| 2026-05-03 21:43 | -31.43485 | -63.92914 | 5617 ft | 280 kts | 271° |
| 2026-05-03 21:43 | -31.43487 | -63.95196 | 5268 ft | 279 kts | 272° |
| 2026-05-03 21:44 | -31.43490 | -63.97448 | 5019 ft | 273 kts | 272° |
| 2026-05-03 21:44 | -31.43493 | -63.99595 | 5003 ft | 262 kts | 272° |
| 2026-05-03 21:44 | -31.43494 | -64.01421 | 4899 ft | 254 kts | 272° |
| 2026-05-03 21:44 | -31.43495 | -64.03438 | 4920 ft | 241 kts | 272° |
| 2026-05-03 21:45 | -31.43500 | -64.05348 | 4936 ft | 228 kts | 271° |
| 2026-05-03 21:45 | -31.43519 | -64.07153 | 4850 ft | 220 kts | 272° |
| 2026-05-03 21:45 | -31.43508 | -64.08964 | 4463 ft | 225 kts | 274° |
| 2026-05-03 21:45 | -31.43501 | -64.10747 | 4287 ft | 220 kts | 274° |
| 2026-05-03 21:46 | -31.43498 | -64.12533 | 4219 ft | 207 kts | 274° |
| 2026-05-03 21:46 | -31.43495 | -64.14194 | 3886 ft | 207 kts | 274° |
| 2026-05-03 21:46 | -31.43295 | -64.15865 | 3698 ft | 203 kts | 294° |
| 2026-05-03 21:46 | -31.42488 | -64.17154 | 3569 ft | 195 kts | 322° |
| 2026-05-03 21:47 | -31.41396 | -64.18031 | 3355 ft | 186 kts | 334° |
| 2026-05-03 21:47 | -31.40294 | -64.18779 | 3119 ft | 177 kts | 335° |
| 2026-05-03 21:47 | -31.39265 | -64.19455 | 2941 ft | 164 kts | 335° |
| 2026-05-03 21:47 | -31.38293 | -64.20094 | 2729 ft | 155 kts | 333° |
| 2026-05-03 21:48 | -31.37395 | -64.20647 | 2504 ft | 141 kts | 344° |
| 2026-05-03 21:48 | -31.36452 | -64.20780 | 2354 ft | 132 kts | 5° |
| 2026-05-03 21:48 | -31.35533 | -64.20769 | 2261 ft | 136 kts | 4° |
| 2026-05-03 21:48 | -31.34558 | -64.20778 | 2086 ft | 143 kts | 2° |
| 2026-05-03 21:49 | -31.33557 | -64.20790 | 1891 ft | 145 kts | 0° |
| 2026-05-03 21:49 | -31.32548 | -64.20800 | 1671 ft | 144 kts | 359° |
| 2026-05-03 21:49 | -31.31539 | -64.20802 | 2051 ft | 148 kts | 1° |
| 2026-05-03 21:49 | -31.30496 | -64.20727 | 3004 ft | 147 kts | 4° |
| 2026-05-03 21:50 | -31.29394 | -64.20569 | 3553 ft | 180 kts | 10° |
| 2026-05-03 21:50 | -31.28047 | -64.20328 | 4126 ft | 210 kts | 9° |
| 2026-05-03 21:50 | -31.26473 | -64.20028 | 4650 ft | 251 kts | 7° |
| 2026-05-03 21:50 | -31.24665 | -64.19666 | 5423 ft | 271 kts | 7° |
| 2026-05-03 21:51 | -31.22707 | -64.19209 | 5516 ft | 306 kts | 9° |
| 2026-05-03 21:51 | -31.20565 | -64.18710 | 5277 ft | 315 kts | 9° |
| 2026-05-03 21:51 | -31.18429 | -64.18214 | 5169 ft | 310 kts | 9° |
| 2026-05-03 21:51 | -31.16333 | -64.17723 | 5106 ft | 304 kts | 10° |
| 2026-05-03 21:52 | -31.14369 | -64.16876 | 5076 ft | 301 kts | 28° |
| 2026-05-03 21:52 | -31.12808 | -64.15189 | 5356 ft | 318 kts | 52° |
| 2026-05-03 21:52 | -31.11925 | -64.12821 | 6450 ft | 322 kts | 75° |
| 2026-05-03 21:52 | -31.11807 | -64.10237 | 7589 ft | 320 kts | 95° |
| 2026-05-03 21:53 | -31.12323 | -64.07718 | 8712 ft | 315 kts | 106° |
| 2026-05-03 21:53 | -31.12756 | -64.05205 | 9039 ft | 326 kts | 92° |
| 2026-05-03 21:53 | -31.12428 | -64.02521 | 9039 ft | 339 kts | 69° |
| 2026-05-03 21:53 | -31.11271 | -64.00186 | 9025 ft | 332 kts | 46° |
| 2026-05-03 21:54 | -31.09472 | -63.98540 | 9025 ft | 325 kts | 27° |
| 2026-05-03 21:54 | -31.07447 | -63.97399 | 9022 ft | 323 kts | 22° |
| 2026-05-03 21:54 | -31.05445 | -63.96299 | 9012 ft | 323 kts | 22° |
| 2026-05-03 21:54 | -31.03400 | -63.95178 | 9006 ft | 323 kts | 22° |
| 2026-05-03 21:55 | -31.01349 | -63.94055 | 9001 ft | 323 kts | 22° |
| 2026-05-03 21:55 | -30.99319 | -63.92945 | 9000 ft | 323 kts | 22° |
| 2026-05-03 21:55 | -30.97296 | -63.91841 | 9000 ft | 323 kts | 22° |
| 2026-05-03 21:55 | -30.95254 | -63.90727 | 9000 ft | 323 kts | 22° |
| 2026-05-03 21:56 | -30.93223 | -63.89620 | 9000 ft | 323 kts | 22° |
| 2026-05-03 21:56 | -30.91880 | -63.88889 | 9000 ft | 323 kts | 22° |
| 2026-05-03 21:56 | -30.89152 | -63.87406 | 9000 ft | 323 kts | 22° |
| 2026-05-03 21:56 | -30.87812 | -63.86678 | 9000 ft | 322 kts | 22° |
| 2026-05-03 21:57 | -30.85771 | -63.85571 | 9000 ft | 322 kts | 22° |
| 2026-05-03 21:57 | -30.83740 | -63.84470 | 9000 ft | 322 kts | 22° |
| 2026-05-03 21:57 | -30.81711 | -63.83341 | 8997 ft | 323 kts | 25° |
| 2026-05-03 21:57 | -30.79467 | -63.81066 | 8986 ft | 330 kts | 54° |
| 2026-05-03 21:58 | -30.78773 | -63.79448 | 8991 ft | 332 kts | 70° |
| 2026-05-03 21:58 | -30.78464 | -63.76798 | 8997 ft | 335 kts | 93° |
| 2026-05-03 21:58 | -30.79034 | -63.74222 | 9000 ft | 335 kts | 116° |
| 2026-05-03 21:58 | -30.80405 | -63.72077 | 9000 ft | 332 kts | 139° |
| 2026-05-03 21:59 | -30.82368 | -63.70710 | 9000 ft | 328 kts | 162° |
| 2026-05-03 21:59 | -30.84592 | -63.70332 | 9006 ft | 322 kts | 185° |
| 2026-05-03 21:59 | -30.86823 | -63.70605 | 9013 ft | 322 kts | 188° |
| 2026-05-03 21:59 | -30.89066 | -63.70526 | 8992 ft | 326 kts | 171° |
| 2026-05-03 22:00 | -30.91235 | -63.69764 | 9010 ft | 328 kts | 162° |
| 2026-05-03 22:00 | -30.93384 | -63.68846 | 9004 ft | 328 kts | 162° |
| 2026-05-03 22:00 | -30.95519 | -63.67943 | 9001 ft | 328 kts | 162° |
| 2026-05-03 22:00 | -30.97675 | -63.67030 | 9000 ft | 328 kts | 162° |
| 2026-05-03 22:01 | -30.99793 | -63.66132 | 9000 ft | 328 kts | 162° |
| 2026-05-03 22:01 | -31.01961 | -63.65214 | 9000 ft | 328 kts | 162° |
| 2026-05-03 22:01 | -31.04111 | -63.64303 | 9000 ft | 328 kts | 162° |
| 2026-05-03 22:01 | -31.06225 | -63.63408 | 9000 ft | 328 kts | 162° |
| 2026-05-03 22:02 | -31.08357 | -63.62504 | 9000 ft | 328 kts | 162° |
| 2026-05-03 22:02 | -31.10513 | -63.61591 | 9000 ft | 328 kts | 162° |
| 2026-05-03 22:02 | -31.12657 | -63.60683 | 9000 ft | 328 kts | 162° |
| 2026-05-03 22:02 | -31.14808 | -63.59772 | 9000 ft | 328 kts | 162° |
| 2026-05-03 22:03 | -31.16943 | -63.58867 | 9000 ft | 328 kts | 162° |
| 2026-05-03 22:03 | -31.19096 | -63.57955 | 9000 ft | 328 kts | 162° |
| 2026-05-03 22:03 | -31.21241 | -63.57046 | 9000 ft | 328 kts | 162° |
| 2026-05-03 22:03 | -31.23380 | -63.56140 | 9000 ft | 328 kts | 162° |
| 2026-05-03 22:04 | -31.25528 | -63.55230 | 9000 ft | 328 kts | 162° |
| 2026-05-03 22:04 | -31.27677 | -63.54319 | 9000 ft | 328 kts | 162° |
| 2026-05-03 22:04 | -31.29827 | -63.53408 | 9000 ft | 328 kts | 162° |
| 2026-05-03 22:04 | -31.31974 | -63.52498 | 9000 ft | 328 kts | 162° |
| 2026-05-03 22:05 | -31.34109 | -63.51594 | 9000 ft | 328 kts | 162° |
| 2026-05-03 22:05 | -31.36264 | -63.50681 | 9000 ft | 328 kts | 162° |
| 2026-05-03 22:05 | -31.38381 | -63.49784 | 9000 ft | 328 kts | 162° |
| 2026-05-03 22:05 | -31.40529 | -63.48874 | 9000 ft | 328 kts | 162° |
| 2026-05-03 22:06 | -31.42674 | -63.47966 | 9000 ft | 328 kts | 162° |
| 2026-05-03 22:06 | -31.44850 | -63.47044 | 9000 ft | 328 kts | 162° |
| 2026-05-03 22:06 | -31.46990 | -63.46137 | 9002 ft | 327 kts | 162° |
| 2026-05-03 22:06 | -31.49097 | -63.45231 | 9002 ft | 325 kts | 162° |
| 2026-05-03 22:07 | -31.51239 | -63.44309 | 9001 ft | 325 kts | 162° |
| 2026-05-03 22:07 | -31.53334 | -63.43408 | 9001 ft | 325 kts | 162° |
| 2026-05-03 22:07 | -31.55483 | -63.42484 | 9000 ft | 325 kts | 162° |
| 2026-05-03 22:07 | -31.56682 | -63.41971 | 9001 ft | 326 kts | 162° |
| 2026-05-03 22:08 | -31.58543 | -63.41177 | 9000 ft | 327 kts | 162° |
| 2026-05-03 22:08 | -31.60707 | -63.40258 | 9001 ft | 327 kts | 163° |
| 2026-05-03 22:08 | -31.62953 | -63.39666 | 8984 ft | 333 kts | 180° |
| 2026-05-03 22:08 | -31.65164 | -63.40150 | 8994 ft | 328 kts | 206° |
| 2026-05-03 22:09 | -31.66941 | -63.41742 | 9001 ft | 322 kts | 233° |
| 2026-05-03 22:09 | -31.67875 | -63.44096 | 9006 ft | 319 kts | 259° |
| 2026-05-03 22:09 | -31.67779 | -63.46671 | 9019 ft | 319 kts | 283° |
| 2026-05-03 22:10 | -31.65897 | -63.51376 | 8685 ft | 318 kts | 295° |
| 2026-05-03 22:10 | -31.64941 | -63.53719 | 8434 ft | 316 kts | 295° |
| 2026-05-03 22:10 | -31.64000 | -63.56011 | 8185 ft | 314 kts | 295° |
| 2026-05-03 22:10 | -31.63049 | -63.58312 | 7934 ft | 312 kts | 296° |
| 2026-05-03 22:11 | -31.62101 | -63.60592 | 7684 ft | 311 kts | 296° |
| 2026-05-03 22:11 | -31.61137 | -63.62901 | 7429 ft | 309 kts | 296° |
| 2026-05-03 22:11 | -31.60192 | -63.65158 | 7177 ft | 304 kts | 296° |
| 2026-05-03 22:11 | -31.59275 | -63.67347 | 7014 ft | 294 kts | 296° |
| 2026-05-03 22:12 | -31.58407 | -63.69415 | 6984 ft | 280 kts | 296° |
| 2026-05-03 22:12 | -31.57574 | -63.71419 | 6981 ft | 270 kts | 295° |
| 2026-05-03 22:12 | -31.56763 | -63.73403 | 6984 ft | 266 kts | 296° |
| 2026-05-03 22:12 | -31.55969 | -63.75323 | 6987 ft | 262 kts | 296° |
| 2026-05-03 22:13 | -31.55168 | -63.77244 | 6990 ft | 262 kts | 296° |
| 2026-05-03 22:13 | -31.54361 | -63.79170 | 6992 ft | 265 kts | 296° |
| 2026-05-03 22:13 | -31.53542 | -63.81120 | 6991 ft | 266 kts | 296° |
| 2026-05-03 22:13 | -31.52727 | -63.83055 | 6991 ft | 266 kts | 296° |
| 2026-05-03 22:14 | -31.51908 | -63.84997 | 6991 ft | 266 kts | 296° |
| 2026-05-03 22:14 | -31.51083 | -63.86950 | 6876 ft | 267 kts | 296° |
| 2026-05-03 22:14 | -31.50257 | -63.88903 | 6634 ft | 269 kts | 296° |
| 2026-05-03 22:14 | -31.49429 | -63.90860 | 6357 ft | 266 kts | 296° |
| 2026-05-03 22:15 | -31.48618 | -63.92778 | 6104 ft | 263 kts | 296° |
| 2026-05-03 22:15 | -31.47805 | -63.94697 | 6027 ft | 258 kts | 297° |
| 2026-05-03 22:15 | -31.47025 | -63.96539 | 5990 ft | 245 kts | 297° |
| 2026-05-03 22:15 | -31.46292 | -63.98269 | 5980 ft | 231 kts | 297° |
| 2026-05-03 22:16 | -31.45599 | -63.99905 | 5970 ft | 218 kts | 297° |
| 2026-05-03 22:16 | -31.45071 | -64.01275 | 5947 ft | 212 kts | 289° |
| 2026-05-03 22:16 | -31.44948 | -64.02981 | 5798 ft | 208 kts | 267° |
| 2026-05-03 22:16 | -31.45167 | -64.04644 | 5557 ft | 207 kts | 263° |
| 2026-05-03 22:17 | -31.45417 | -64.06310 | 5283 ft | 208 kts | 263° |
| 2026-05-03 22:17 | -31.45667 | -64.07949 | 5045 ft | 206 kts | 263° |
| 2026-05-03 22:17 | -31.45916 | -64.09564 | 5007 ft | 196 kts | 263° |
| 2026-05-03 22:17 | -31.46161 | -64.11134 | 5030 ft | 191 kts | 263° |
| 2026-05-03 22:18 | -31.46398 | -64.12656 | 5015 ft | 188 kts | 263° |
| 2026-05-03 22:18 | -31.46632 | -64.14141 | 5004 ft | 187 kts | 263° |
| 2026-05-03 22:18 | -31.46866 | -64.15640 | 5002 ft | 188 kts | 263° |
| 2026-05-03 22:18 | -31.47105 | -64.17166 | 4998 ft | 187 kts | 263° |
| 2026-05-03 22:19 | -31.47334 | -64.18626 | 5004 ft | 182 kts | 263° |
| 2026-05-03 22:19 | -31.47562 | -64.20068 | 4995 ft | 179 kts | 263° |
| 2026-05-03 22:19 | -31.47761 | -64.21491 | 4990 ft | 177 kts | 269° |
| 2026-05-03 22:19 | -31.47480 | -64.22857 | 4939 ft | 173 kts | 304° |
| 2026-05-03 22:20 | -31.46500 | -64.23631 | 4960 ft | 176 kts | 343° |
| 2026-05-03 22:20 | -31.45289 | -64.23491 | 4944 ft | 180 kts | 14° |
| 2026-05-03 22:20 | -31.44137 | -64.22954 | 4797 ft | 177 kts | 17° |
| 2026-05-03 22:20 | -31.42966 | -64.22552 | 4570 ft | 172 kts | 11° |
| 2026-05-03 22:21 | -31.41809 | -64.22176 | 3998 ft | 177 kts | 11° |
| 2026-05-03 22:21 | -31.40585 | -64.21782 | 3274 ft | 184 kts | 11° |
| 2026-05-03 22:21 | -31.39391 | -64.21397 | 2783 ft | 171 kts | 11° |
| 2026-05-03 22:21 | -31.38310 | -64.21048 | 2524 ft | 150 kts | 10° |
| 2026-05-03 22:22 | -31.37365 | -64.20767 | 2389 ft | 136 kts | 11° |
| 2026-05-03 22:22 | -31.36442 | -64.20728 | 2350 ft | 133 kts | 1° |
| 2026-05-03 22:22 | -31.35485 | -64.20786 | 2094 ft | 143 kts | 2° |
| 2026-05-03 22:22 | -31.34485 | -64.20778 | 1986 ft | 141 kts | 1° |
| 2026-05-03 22:23 | -31.33502 | -64.20793 | 1853 ft | 141 kts | 360° |
| 2026-05-03 22:23 | -31.32553 | -64.20805 | 1660 ft | 130 kts | 359° |
| 2026-05-03 22:23 | -31.31721 | -64.20815 | 1610 ft | 100 kts | 359° |
| 2026-05-03 22:23 | -31.31264 | -64.20823 | 1609 ft | 36 kts | 359° |
| 2026-05-03 22:24 | -31.31182 | -64.20835 | 1609 ft | 1 kts | 356° |
| 2026-05-03 22:24 | -31.31177 | -64.20832 | 1609 ft | 1 kts | 44° |
| 2026-05-03 22:24 | -31.31177 | -64.20825 | 1609 ft | 1 kts | 102° |
| 2026-05-03 22:24 | -31.31191 | -64.20818 | 1609 ft | 6 kts | 187° |
| 2026-05-03 22:25 | -31.31312 | -64.20824 | 1609 ft | 30 kts | 181° |
| 2026-05-03 22:25 | -31.31465 | -64.20867 | 1609 ft | 9 kts | 255° |
| 2026-05-03 22:25 | -31.31470 | -64.20930 | 1609 ft | 8 kts | 268° |
| 2026-05-03 22:25 | -31.31471 | -64.20958 | 1609 ft | 0 kts | 269° |
| 2026-05-03 22:26 | -31.31471 | -64.20986 | 1609 ft | 5 kts | 269° |
| 2026-05-03 22:26 | -31.31471 | -64.21010 | 1609 ft | 3 kts | 269° |
| 2026-05-03 22:26 | -31.31478 | -64.21045 | 1609 ft | 7 kts | 235° |
| 2026-05-03 22:27 | -31.31518 | -64.21068 | 1609 ft | 7 kts | 178° |
| 2026-05-03 22:27 | -31.31551 | -64.21097 | 1609 ft | 7 kts | 276° |
| 2026-05-03 22:27 | -31.31549 | -64.21138 | 1609 ft | 1 kts | 270° |
| 2026-05-03 22:27 | -31.31549 | -64.21149 | 1609 ft | 1 kts | 270° |
| 2026-05-03 22:28 | -31.31549 | -64.21159 | 1609 ft | 1 kts | 270° |
| 2026-05-03 22:28 | -31.31549 | -64.21167 | 1609 ft | 1 kts | 270° |
| 2026-05-03 22:28 | -31.31549 | -64.21168 | 1609 ft | 0 kts | 270° |